createdAt,value
2023-04-26T00:01:04.512Z,3.12
2023-04-26T00:03:31.184Z,3.11
2023-04-26T00:05:59.742Z,3.09
2023-04-26T00:08:26.203Z,3.05
2023-04-26T00:10:52.654Z,3.03
2023-04-26T00:13:19.118Z,3.02
2023-04-26T00:15:45.548Z,3.02
2023-04-26T00:18:13.470Z,3.00
2023-04-26T00:20:39.973Z,2.98
2023-04-26T00:23:06.448Z,2.98
2023-04-26T00:25:32.954Z,2.97
2023-04-26T00:27:59.437Z,2.95
2023-04-26T00:30:25.907Z,2.93
2023-04-26T00:32:52.352Z,2.89
2023-04-26T00:35:20.469Z,2.87
2023-04-26T00:37:47.049Z,2.85
2023-04-26T00:40:14.037Z,2.82
2023-04-26T00:42:40.498Z,2.78
2023-04-26T00:45:08.086Z,2.76
2023-04-26T00:47:35.512Z,2.70
2023-04-26T00:50:02.185Z,2.67
2023-04-26T00:52:30.839Z,2.60
2023-04-26T00:54:57.786Z,2.56
2023-04-26T00:57:24.255Z,2.54
2023-04-26T00:59:50.717Z,2.55
2023-04-26T01:02:17.307Z,2.55
2023-04-26T01:04:44.132Z,2.54
2023-04-26T01:07:10.727Z,2.54
2023-04-26T01:09:39.287Z,2.53
2023-04-26T01:12:07.302Z,2.49
2023-04-26T01:14:34.318Z,2.48
2023-04-26T01:17:01.904Z,2.45
2023-04-26T01:19:28.423Z,2.42
2023-04-26T01:21:54.936Z,2.37
2023-04-26T01:24:22.759Z,2.33
2023-04-26T01:26:49.784Z,2.28
2023-04-26T01:29:17.094Z,2.18
2023-04-26T01:31:44.095Z,2.04
2023-04-26T01:34:10.585Z,1.99
2023-04-26T01:36:37.078Z,1.99
2023-04-26T01:39:03.908Z,2.02
2023-04-26T01:41:31.746Z,1.97
2023-04-26T01:43:58.234Z,1.98
2023-04-26T01:46:24.855Z,1.98
2023-04-26T01:48:51.590Z,1.99
2023-04-26T01:51:18.324Z,1.94
2023-04-26T01:53:44.808Z,1.90
2023-04-26T01:56:11.323Z,1.88
2023-04-26T01:58:39.209Z,1.80
2023-04-26T02:01:07.952Z,1.78
2023-04-26T02:03:35.016Z,1.68
2023-04-26T02:06:01.846Z,1.65
2023-04-26T02:08:28.350Z,1.61
2023-04-26T02:10:54.827Z,1.64
2023-04-26T02:13:21.497Z,1.67
2023-04-26T02:15:49.760Z,1.66
2023-04-26T02:18:17.237Z,1.68
2023-04-26T02:20:44.421Z,1.69
2023-04-26T02:23:11.519Z,1.72
2023-04-26T02:25:39.029Z,1.69
2023-04-26T02:28:05.966Z,1.67
2023-04-26T02:30:32.659Z,1.62
2023-04-26T02:33:00.547Z,1.59
2023-04-26T02:35:27.074Z,1.50
2023-04-26T02:37:53.534Z,1.46
2023-04-26T02:40:20.558Z,1.38
2023-04-26T02:42:47.548Z,1.31
2023-04-26T02:45:14.235Z,1.25
2023-04-26T02:47:40.803Z,1.23
2023-04-26T02:50:09.934Z,1.23
2023-04-26T02:52:37.027Z,1.19
2023-04-26T02:55:03.952Z,1.25
2023-04-26T02:57:30.451Z,1.29
2023-04-26T02:59:57.313Z,1.32
2023-04-26T03:02:24.019Z,1.37
2023-04-26T03:04:50.609Z,1.39
2023-04-26T03:07:18.441Z,1.41
2023-04-26T03:09:44.968Z,1.40
2023-04-26T03:12:12.080Z,1.36
2023-04-26T03:14:38.780Z,1.34
2023-04-26T03:17:05.353Z,1.32
2023-04-26T03:19:31.844Z,1.29
2023-04-26T03:21:58.302Z,1.28
2023-04-26T03:24:26.521Z,1.27
2023-04-26T03:26:53.056Z,1.29
2023-04-26T03:29:19.605Z,1.27
2023-04-26T03:31:46.125Z,1.28
2023-04-26T03:34:12.689Z,1.26
2023-04-26T03:36:39.184Z,1.27
2023-04-26T03:39:05.782Z,1.26
2023-04-26T03:41:33.647Z,1.26
2023-04-26T03:44:00.201Z,1.24
2023-04-26T03:46:26.823Z,1.20
2023-04-26T03:48:53.741Z,1.20
2023-04-26T03:51:20.437Z,1.20
2023-04-26T03:53:47.162Z,1.15
2023-04-26T03:56:13.705Z,1.08
2023-04-26T03:58:41.561Z,0.99
2023-04-26T04:01:08.024Z,0.91
2023-04-26T04:03:34.913Z,0.86
2023-04-26T04:06:01.850Z,0.88
2023-04-26T04:08:28.414Z,0.90
2023-04-26T04:10:55.657Z,0.91
2023-04-26T04:13:22.250Z,0.88
2023-04-26T04:15:50.214Z,0.85
2023-04-26T04:18:16.908Z,0.82
2023-04-26T04:20:43.501Z,0.78
2023-04-26T04:23:10.053Z,0.79
2023-04-26T04:25:36.637Z,0.87
2023-04-26T04:28:03.439Z,0.96
2023-04-26T04:30:30.399Z,1.01
2023-04-26T04:32:58.343Z,1.02
2023-04-26T04:35:24.857Z,1.09
2023-04-26T04:37:51.380Z,1.13
2023-04-26T04:40:18.039Z,1.13
2023-04-26T04:42:44.542Z,1.13
2023-04-26T04:45:11.263Z,1.16
2023-04-26T04:47:37.948Z,1.18
2023-04-26T04:50:07.576Z,1.24
2023-04-26T04:52:34.236Z,1.25
2023-04-26T04:55:00.822Z,1.30
2023-04-26T04:57:27.332Z,1.36
2023-04-26T04:59:53.820Z,1.43
2023-04-26T05:02:20.450Z,1.55
2023-04-26T05:04:47.135Z,1.66
2023-04-26T05:07:15.043Z,1.79
2023-04-26T05:09:41.859Z,1.87
2023-04-26T05:12:08.373Z,1.92
2023-04-26T05:14:34.867Z,2.01
2023-04-26T05:17:01.564Z,2.08
2023-04-26T05:19:28.112Z,2.16
2023-04-26T05:21:54.589Z,2.25
2023-04-26T05:24:22.394Z,2.35
2023-04-26T05:26:48.919Z,2.46
2023-04-26T05:29:15.446Z,2.54
2023-04-26T05:31:42.003Z,2.63
2023-04-26T05:34:08.549Z,2.71
2023-04-26T05:36:35.100Z,2.79
2023-04-26T05:39:01.596Z,2.83
2023-04-26T05:41:29.440Z,2.89
2023-04-26T05:43:55.932Z,2.93
2023-04-26T05:46:22.725Z,2.98
2023-04-26T05:48:49.426Z,3.06
2023-04-26T05:51:15.967Z,3.11
2023-04-26T05:53:42.449Z,3.16
2023-04-26T05:56:09.191Z,3.20
2023-04-26T05:58:37.018Z,3.26
2023-04-26T06:01:03.506Z,3.32
2023-04-26T06:03:30.318Z,3.38
2023-04-26T06:05:57.162Z,3.44
2023-04-26T06:08:23.824Z,3.49
2023-04-26T06:10:50.568Z,3.56
2023-04-26T06:13:17.089Z,3.63
2023-04-26T06:15:44.929Z,3.70
2023-04-26T06:18:11.441Z,3.76
2023-04-26T06:20:38.004Z,3.84
2023-04-26T06:23:04.515Z,3.92
2023-04-26T06:25:31.047Z,4.01
2023-04-26T06:27:57.573Z,4.07
2023-04-26T06:30:24.191Z,4.17
2023-04-26T06:32:52.040Z,4.25
2023-04-26T06:35:18.610Z,4.31
2023-04-26T06:37:45.119Z,4.36
2023-04-26T06:40:12.243Z,4.45
2023-04-26T06:42:38.783Z,4.51
2023-04-26T06:45:06.235Z,4.60
2023-04-26T06:47:32.801Z,4.66
2023-04-26T06:50:00.880Z,4.74
2023-04-26T06:52:27.553Z,4.85
2023-04-26T06:54:57.328Z,4.94
2023-04-26T06:57:24.331Z,5.07
2023-04-26T06:59:50.832Z,5.16
2023-04-26T07:02:17.437Z,5.22
2023-04-26T07:04:44.067Z,5.26
2023-04-26T07:07:13.416Z,5.30
2023-04-26T07:09:40.349Z,5.36
2023-04-26T07:12:07.020Z,5.41
2023-04-26T07:14:33.704Z,5.48
2023-04-26T07:17:00.199Z,5.56
2023-04-26T07:19:26.718Z,5.64
2023-04-26T07:21:53.189Z,5.74
2023-04-26T07:24:21.018Z,5.83
2023-04-26T07:26:47.557Z,5.90
2023-04-26T07:29:14.061Z,5.97
2023-04-26T07:31:40.705Z,6.02
2023-04-26T07:34:07.266Z,6.05
2023-04-26T07:36:33.780Z,6.10
2023-04-26T07:39:00.309Z,6.18
2023-04-26T07:41:28.144Z,6.26
2023-04-26T07:43:54.811Z,6.35
2023-04-26T07:46:21.868Z,6.47
2023-04-26T07:48:48.416Z,6.54
2023-04-26T07:51:14.961Z,6.61
2023-04-26T07:53:41.479Z,6.65
2023-04-26T07:56:09.302Z,6.71
2023-04-26T07:58:38.122Z,6.83
2023-04-26T08:01:05.061Z,6.94
2023-04-26T08:03:31.816Z,7.08
2023-04-26T08:05:58.734Z,7.20
2023-04-26T08:08:25.818Z,7.29
2023-04-26T08:10:52.324Z,7.29
2023-04-26T08:13:18.878Z,7.30
2023-04-26T08:15:46.941Z,7.31
2023-04-26T08:18:13.416Z,7.29
2023-04-26T08:20:40.153Z,7.34
2023-04-26T08:23:06.708Z,7.47
2023-04-26T08:25:33.204Z,7.63
2023-04-26T08:27:59.705Z,7.73
2023-04-26T08:30:26.332Z,7.83
2023-04-26T08:32:54.226Z,7.97
2023-04-26T08:35:20.773Z,8.08
2023-04-26T08:37:47.332Z,8.17
2023-04-26T08:40:13.871Z,8.25
2023-04-26T08:42:42.161Z,8.27
2023-04-26T08:45:09.609Z,8.28
2023-04-26T08:47:40.274Z,8.20
2023-04-26T08:50:11.658Z,8.15
2023-04-26T08:52:39.612Z,8.03
2023-04-26T08:55:07.681Z,8.03
2023-04-26T08:57:35.044Z,8.14
2023-04-26T09:00:02.771Z,8.22
2023-04-26T09:02:29.884Z,8.28
2023-04-26T09:04:56.552Z,8.33
2023-04-26T09:07:31.390Z,8.24
2023-04-26T09:09:59.447Z,8.17
2023-04-26T09:12:25.966Z,8.14
2023-04-26T09:14:52.543Z,8.13
2023-04-26T09:17:26.279Z,8.16
2023-04-26T09:19:53.688Z,8.19
2023-04-26T09:22:32.933Z,8.23
2023-04-26T09:24:59.808Z,8.38
2023-04-26T09:27:34.466Z,8.61
2023-04-26T09:30:04.739Z,8.67
2023-04-26T09:32:47.934Z,8.56
2023-04-26T09:35:26.576Z,8.59
2023-04-26T09:38:00.046Z,8.69
2023-04-26T09:40:30.363Z,8.83
2023-04-26T09:42:58.414Z,8.90
2023-04-26T09:45:25.393Z,8.99
2023-04-26T09:47:52.019Z,8.94
2023-04-26T09:50:29.063Z,9.00
2023-04-26T09:52:57.924Z,9.12
2023-04-26T09:55:34.962Z,9.24
2023-04-26T09:58:08.877Z,9.33
2023-04-26T10:00:38.369Z,9.45
2023-04-26T10:03:07.590Z,9.58
2023-04-26T10:05:34.394Z,9.68
2023-04-26T10:08:02.588Z,9.74
2023-04-26T10:10:30.015Z,9.85
2023-04-26T10:12:56.463Z,10.01
2023-04-26T10:15:23.547Z,10.18
2023-04-26T10:17:52.066Z,10.25
2023-04-26T10:20:20.918Z,10.31
2023-04-26T10:22:52.686Z,10.30
2023-04-26T10:25:21.111Z,10.36
2023-04-26T10:27:51.366Z,10.37
2023-04-26T10:30:19.596Z,10.35
2023-04-26T10:33:16.146Z,10.35
2023-04-26T10:36:15.740Z,10.24
2023-04-26T10:39:02.904Z,10.16
2023-04-26T10:41:35.561Z,10.17
2023-04-26T10:44:40.009Z,10.19
2023-04-26T10:47:08.047Z,10.22
2023-04-26T10:49:45.421Z,10.21
2023-04-26T10:52:13.867Z,10.33
2023-04-26T10:54:48.146Z,10.48
2023-04-26T10:57:16.458Z,10.65
2023-04-26T11:00:16.840Z,10.73
2023-04-26T11:02:53.386Z,10.74
2023-04-26T11:05:41.235Z,10.77
2023-04-26T11:08:14.639Z,10.71
2023-04-26T11:10:41.575Z,10.65
2023-04-26T11:13:09.567Z,10.66
2023-04-26T11:15:36.336Z,10.73
2023-04-26T11:18:03.826Z,10.83
2023-04-26T11:20:31.018Z,11.02
2023-04-26T11:22:57.959Z,11.33
2023-04-26T11:25:25.623Z,11.49
2023-04-26T11:27:52.184Z,11.48
2023-04-26T11:30:20.084Z,11.43
2023-04-26T11:32:46.716Z,11.36
2023-04-26T11:35:13.686Z,11.27
2023-04-26T11:37:40.233Z,11.16
2023-04-26T11:40:10.392Z,11.04
2023-04-26T11:42:37.000Z,10.89
2023-04-26T11:45:03.901Z,10.82
2023-04-26T11:47:31.843Z,10.77
2023-04-26T11:49:58.432Z,10.68
2023-04-26T11:52:26.184Z,10.49
2023-04-26T11:55:01.590Z,10.28
2023-04-26T11:57:30.746Z,10.24
2023-04-26T12:00:07.897Z,10.12
2023-04-26T12:02:37.088Z,10.28
2023-04-26T12:05:04.310Z,10.58
2023-04-26T12:07:35.642Z,10.82
2023-04-26T12:10:14.559Z,10.92
2023-04-26T12:12:44.766Z,11.14
2023-04-26T12:15:13.841Z,11.31
2023-04-26T12:17:52.105Z,11.50
2023-04-26T12:20:19.254Z,11.64
2023-04-26T12:23:06.409Z,11.79
2023-04-26T12:25:34.035Z,11.82
2023-04-26T12:28:01.484Z,11.94
2023-04-26T12:30:31.177Z,12.16
2023-04-26T12:33:09.201Z,12.47
2023-04-26T12:35:41.960Z,12.68
2023-04-26T12:38:08.463Z,12.66
2023-04-26T12:40:36.321Z,12.57
2023-04-26T12:43:02.846Z,12.38
2023-04-26T12:45:29.426Z,12.20
2023-04-26T12:47:55.993Z,12.09
2023-04-26T12:50:24.083Z,12.14
2023-04-26T12:52:50.609Z,12.12
2023-04-26T12:55:17.409Z,12.17
2023-04-26T12:57:44.852Z,12.14
2023-04-26T13:00:13.517Z,11.95
2023-04-26T13:02:40.810Z,11.99
2023-04-26T13:05:08.022Z,11.78
2023-04-26T13:07:37.277Z,11.51
2023-04-26T13:10:05.303Z,11.27
2023-04-26T13:12:32.039Z,11.40
2023-04-26T13:14:58.651Z,11.28
2023-04-26T13:17:25.925Z,11.06
2023-04-26T13:19:53.112Z,10.94
2023-04-26T13:22:20.441Z,10.92
2023-04-26T13:24:48.571Z,10.79
2023-04-26T13:27:15.124Z,10.82
2023-04-26T13:29:41.631Z,10.83
2023-04-26T13:32:08.261Z,10.88
2023-04-26T13:34:35.989Z,10.92
2023-04-26T13:37:02.639Z,11.02
2023-04-26T13:39:29.386Z,11.14
2023-04-26T13:41:58.490Z,11.25
2023-04-26T13:44:25.217Z,11.38
2023-04-26T13:46:51.688Z,11.59
2023-04-26T13:49:18.200Z,11.80
2023-04-26T13:51:44.736Z,11.84
2023-04-26T13:54:11.212Z,11.91
2023-04-26T13:56:37.722Z,12.02
2023-04-26T13:59:05.583Z,12.05
2023-04-26T14:01:34.189Z,12.02
2023-04-26T14:04:00.919Z,12.04
2023-04-26T14:06:27.679Z,11.94
2023-04-26T14:08:54.264Z,11.83
2023-04-26T14:11:20.880Z,11.76
2023-04-26T14:13:47.338Z,11.76
2023-04-26T14:16:15.240Z,11.76
2023-04-26T14:18:41.834Z,11.79
2023-04-26T14:21:08.349Z,11.97
2023-04-26T14:23:34.805Z,12.14
2023-04-26T14:26:01.362Z,12.17
2023-04-26T14:28:28.168Z,12.04
2023-04-26T14:30:54.629Z,11.99
2023-04-26T14:33:24.928Z,11.96
2023-04-26T14:35:51.681Z,11.97
2023-04-26T14:38:18.498Z,12.08
2023-04-26T14:40:45.004Z,12.12
2023-04-26T14:43:11.504Z,12.16
2023-04-26T14:48:09.816Z,12.18
2023-04-26T14:50:37.849Z,12.24
2023-04-26T14:53:04.416Z,12.41
2023-04-26T14:55:30.882Z,12.52
2023-04-26T14:57:57.362Z,12.54
2023-04-26T15:00:23.896Z,12.39
2023-04-26T15:02:50.577Z,12.25
2023-04-26T15:05:17.390Z,11.99
2023-04-26T15:07:45.213Z,12.03
2023-04-26T15:10:11.739Z,11.80
2023-04-26T15:12:38.307Z,11.50
2023-04-26T15:15:05.758Z,11.52
2023-04-26T15:17:32.243Z,11.37
2023-04-26T15:19:58.768Z,11.27
2023-04-26T15:22:25.321Z,11.27
2023-04-26T15:24:53.247Z,11.29
2023-04-26T15:27:19.782Z,11.51
2023-04-26T15:29:46.321Z,11.32
2023-04-26T15:32:12.877Z,11.30
2023-04-26T15:34:41.031Z,11.44
2023-04-26T15:37:07.528Z,11.37
2023-04-26T15:39:33.999Z,11.36
2023-04-26T15:42:01.831Z,11.49
2023-04-26T15:44:28.327Z,11.50
2023-04-26T15:46:54.821Z,11.54
2023-04-26T15:49:23.373Z,11.68
2023-04-26T15:51:49.910Z,11.43
2023-04-26T15:54:16.483Z,11.46
2023-04-26T15:56:43.724Z,11.37
2023-04-26T15:59:11.567Z,11.37
2023-04-26T16:01:38.170Z,11.48
2023-04-26T16:04:07.844Z,11.45
2023-04-26T16:06:34.461Z,11.46
2023-04-26T16:09:02.060Z,11.43
2023-04-26T16:11:28.663Z,11.48
2023-04-26T16:13:55.208Z,11.46
2023-04-26T16:16:23.058Z,11.53
2023-04-26T16:18:50.272Z,11.62
2023-04-26T16:21:16.812Z,11.42
2023-04-26T16:23:43.337Z,11.32
2023-04-26T16:26:09.888Z,11.35
2023-04-26T16:28:36.576Z,11.47
2023-04-26T16:31:03.272Z,11.35
2023-04-26T16:33:31.116Z,11.28
2023-04-26T16:35:57.625Z,11.22
2023-04-26T16:38:24.177Z,11.24
2023-04-26T16:40:54.302Z,11.24
2023-04-26T16:43:21.005Z,11.36
2023-04-26T16:45:47.691Z,11.35
2023-04-26T16:48:14.248Z,11.26
2023-04-26T16:50:42.136Z,11.02
2023-04-26T16:53:08.623Z,11.11
2023-04-26T16:55:35.109Z,11.12
2023-04-26T16:58:01.597Z,11.01
2023-04-26T17:00:28.178Z,10.92
2023-04-26T17:02:54.801Z,10.98
2023-04-26T17:05:21.370Z,10.91
2023-04-26T17:07:49.206Z,10.98
2023-04-26T17:10:15.893Z,10.98
2023-04-26T17:12:42.427Z,11.07
2023-04-26T17:15:09.930Z,10.90
2023-04-26T17:17:36.495Z,10.86
2023-04-26T17:20:03.364Z,10.94
2023-04-26T17:22:29.860Z,10.90
2023-04-26T17:24:57.656Z,10.84
2023-04-26T17:27:24.620Z,10.73
2023-04-26T17:29:51.101Z,10.63
2023-04-26T17:32:17.647Z,10.56
2023-04-26T17:34:44.125Z,10.54
2023-04-26T17:37:10.653Z,10.52
2023-04-26T17:39:37.215Z,10.47
2023-04-26T17:42:05.159Z,10.48
2023-04-26T17:44:31.819Z,10.45
2023-04-26T17:46:58.352Z,10.37
2023-04-26T17:49:24.893Z,10.35
2023-04-26T17:51:51.609Z,10.36
2023-04-26T17:54:18.169Z,10.43
2023-04-26T17:56:44.830Z,10.33
2023-04-26T17:59:12.714Z,10.18
2023-04-26T18:01:39.325Z,10.06
2023-04-26T18:04:06.146Z,10.08
2023-04-26T18:06:32.915Z,10.15
2023-04-26T18:08:59.425Z,10.12
2023-04-26T18:11:25.956Z,10.07
2023-04-26T18:13:52.485Z,10.04
2023-04-26T18:16:20.417Z,10.00
2023-04-26T18:18:46.958Z,10.01
2023-04-26T18:21:13.432Z,9.96
2023-04-26T18:23:40.004Z,9.97
2023-04-26T18:26:06.645Z,9.85
2023-04-26T18:28:33.248Z,9.79
2023-04-26T18:31:00.481Z,9.79
2023-04-26T18:33:28.654Z,9.75
2023-04-26T18:35:55.306Z,9.71
2023-04-26T18:38:21.818Z,9.64
2023-04-26T18:40:48.337Z,9.59
2023-04-26T18:43:14.815Z,9.54
2023-04-26T18:45:41.600Z,9.49
2023-04-26T18:48:08.309Z,9.45
2023-04-26T18:50:36.226Z,9.43
2023-04-26T18:53:02.817Z,9.47
2023-04-26T18:55:29.332Z,9.43
2023-04-26T18:57:55.795Z,9.37
2023-04-26T19:00:22.499Z,9.36
2023-04-26T19:02:49.199Z,9.33
2023-04-26T19:05:16.068Z,9.30
2023-04-26T19:07:44.030Z,9.28
2023-04-26T19:10:10.985Z,9.22
2023-04-26T19:12:37.515Z,9.24
2023-04-26T19:15:06.244Z,9.20
2023-04-26T19:17:32.754Z,9.17
2023-04-26T19:19:59.243Z,9.17
2023-04-26T19:22:25.723Z,9.13
2023-04-26T19:24:53.494Z,9.09
2023-04-26T19:27:19.976Z,9.06
2023-04-26T19:29:46.422Z,9.07
2023-04-26T19:32:12.933Z,9.08
2023-04-26T19:34:39.488Z,9.08
2023-04-26T19:37:06.057Z,9.06
2023-04-26T19:39:32.576Z,9.04
2023-04-26T19:42:00.395Z,9.00
2023-04-26T19:44:26.982Z,8.96
2023-04-26T19:46:53.539Z,8.96
2023-04-26T19:49:20.081Z,8.93
2023-04-26T19:51:46.581Z,8.88
2023-04-26T19:54:13.136Z,8.80
2023-04-26T19:56:39.618Z,8.81
2023-04-26T19:59:07.613Z,8.79
2023-04-26T20:01:34.534Z,8.79
2023-04-26T20:04:01.348Z,8.75
2023-04-26T20:06:27.961Z,8.70
2023-04-26T20:08:54.442Z,8.69
2023-04-26T20:11:20.922Z,8.69
2023-04-26T20:13:47.385Z,8.63
2023-04-26T20:16:15.230Z,8.62
2023-04-26T20:18:41.763Z,8.62
2023-04-26T20:21:08.274Z,8.61
2023-04-26T20:23:34.880Z,8.57
2023-04-26T20:26:01.458Z,8.53
2023-04-26T20:28:27.980Z,8.51
2023-04-26T20:30:54.459Z,8.46
2023-04-26T20:33:22.282Z,8.43
2023-04-26T20:35:48.967Z,8.38
2023-04-26T20:38:15.593Z,8.36
2023-04-26T20:40:42.114Z,8.36
2023-04-26T20:43:08.783Z,8.33
2023-04-26T20:45:35.280Z,8.29
2023-04-26T20:48:01.844Z,8.26
2023-04-26T20:50:29.769Z,8.24
2023-04-26T20:52:56.245Z,8.20
2023-04-26T20:55:22.977Z,8.16
2023-04-26T20:57:49.493Z,8.15
2023-04-26T21:00:16.569Z,8.13
2023-04-26T21:02:43.216Z,8.11
2023-04-26T21:05:10.232Z,8.05
2023-04-26T21:07:38.128Z,8.01
2023-04-26T21:10:05.424Z,7.99
2023-04-26T21:12:31.929Z,7.96
2023-04-26T21:14:58.633Z,7.94
2023-04-26T21:17:25.158Z,7.91
2023-04-26T21:19:51.737Z,7.89
2023-04-26T21:22:18.263Z,7.86
2023-04-26T21:24:46.104Z,7.82
2023-04-26T21:27:12.603Z,7.78
2023-04-26T21:29:39.183Z,7.76
2023-04-26T21:32:05.786Z,7.73
2023-04-26T21:34:32.319Z,7.70
2023-04-26T21:36:58.803Z,7.67
2023-04-26T21:39:25.318Z,7.65
2023-04-26T21:41:53.243Z,7.62
2023-04-26T21:44:19.685Z,7.58
2023-04-26T21:46:46.224Z,7.56
2023-04-26T21:49:12.762Z,7.55
2023-04-26T21:51:39.269Z,7.51
2023-04-26T21:54:05.815Z,7.48
2023-04-26T21:56:32.306Z,7.43
2023-04-26T21:59:00.187Z,7.36
2023-04-26T22:01:27.033Z,7.31
2023-04-26T22:03:53.643Z,7.24
2023-04-26T22:06:20.192Z,7.20
2023-04-26T22:08:46.736Z,7.17
2023-04-26T22:11:13.276Z,7.17
2023-04-26T22:13:39.764Z,7.14
2023-04-26T22:16:07.784Z,7.11
2023-04-26T22:18:34.345Z,7.07
2023-04-26T22:21:00.853Z,7.03
2023-04-26T22:23:27.358Z,6.99
2023-04-26T22:25:53.901Z,6.93
2023-04-26T22:28:20.391Z,6.89
2023-04-26T22:30:46.883Z,6.85
2023-04-26T22:33:14.702Z,6.80
2023-04-26T22:35:41.200Z,6.75
2023-04-26T22:38:07.686Z,6.73
2023-04-26T22:40:34.528Z,6.72
2023-04-26T22:43:01.104Z,6.66
2023-04-26T22:45:27.588Z,6.62
2023-04-26T22:47:54.179Z,6.63
2023-04-26T22:50:22.308Z,6.58
2023-04-26T22:52:48.851Z,6.55
2023-04-26T22:55:15.398Z,6.42
2023-04-26T22:57:41.900Z,6.34
2023-04-26T23:00:09.271Z,6.29
2023-04-26T23:02:35.847Z,6.26
2023-04-26T23:05:02.598Z,6.24
2023-04-26T23:07:30.443Z,6.22
2023-04-26T23:09:57.005Z,6.25
2023-04-26T23:12:23.538Z,6.24
2023-04-26T23:14:50.008Z,6.20
2023-04-26T23:17:16.581Z,6.15
2023-04-26T23:19:43.055Z,6.08
2023-04-26T23:22:09.550Z,6.06
2023-04-26T23:24:37.352Z,6.01
2023-04-26T23:27:04.099Z,5.97
2023-04-26T23:29:30.562Z,5.95
2023-04-26T23:31:57.131Z,5.88
2023-04-26T23:34:23.647Z,5.82
2023-04-26T23:36:50.108Z,5.75
2023-04-26T23:39:16.613Z,5.74
2023-04-26T23:41:44.458Z,5.71
2023-04-26T23:44:10.988Z,5.70
2023-04-26T23:46:37.507Z,5.66
2023-04-26T23:49:04.058Z,5.56
2023-04-26T23:51:30.665Z,5.49
2023-04-26T23:53:57.127Z,5.38
2023-04-26T23:56:23.745Z,5.34
2023-04-26T23:58:51.558Z,5.34
